createdAt,value
2018-09-20T00:00:19.174Z,17.38
2018-09-20T00:01:19.153Z,17.55
2018-09-20T00:02:19.131Z,17.77
2018-09-20T00:03:19.112Z,17.81
2018-09-20T00:04:19.088Z,17.82
2018-09-20T00:05:19.068Z,17.86
2018-09-20T00:06:19.046Z,17.86
2018-09-20T00:07:19.026Z,17.84
2018-09-20T00:08:19.004Z,17.78
2018-09-20T00:09:18.983Z,17.79
2018-09-20T00:10:18.967Z,17.79
2018-09-20T00:11:18.941Z,17.70
2018-09-20T00:12:18.918Z,17.68
2018-09-20T00:13:18.898Z,17.52
2018-09-20T00:14:18.877Z,17.46
2018-09-20T00:15:18.856Z,17.33
2018-09-20T00:16:18.833Z,17.26
2018-09-20T00:17:18.811Z,17.16
2018-09-20T00:18:18.791Z,17.06
2018-09-20T00:19:18.770Z,16.97
2018-09-20T00:20:18.749Z,16.91
2018-09-20T00:21:18.727Z,16.79
2018-09-20T00:22:18.710Z,16.71
2018-09-20T00:23:18.684Z,16.64
2018-09-20T00:24:18.664Z,16.63
2018-09-20T00:25:18.641Z,16.57
2018-09-20T00:26:18.620Z,16.39
2018-09-20T00:27:18.599Z,16.35
2018-09-20T00:28:18.578Z,16.38
2018-09-20T00:29:18.555Z,16.30
2018-09-20T00:30:18.535Z,16.25
2018-09-20T00:31:18.513Z,16.15
2018-09-20T00:32:18.493Z,16.20
2018-09-20T00:33:18.470Z,16.08
2018-09-20T00:34:18.449Z,16.04
2018-09-20T00:35:18.428Z,16.12
2018-09-20T00:36:18.405Z,15.96
2018-09-20T00:37:18.384Z,15.89
2018-09-20T00:38:18.363Z,15.90
2018-09-20T00:39:18.342Z,15.80
2018-09-20T00:40:18.322Z,15.72
2018-09-20T00:41:18.297Z,15.76
2018-09-20T00:42:18.278Z,15.74
2018-09-20T00:43:18.254Z,15.72
2018-09-20T00:44:18.233Z,15.67
2018-09-20T00:45:18.212Z,15.71
2018-09-20T00:46:18.190Z,15.64
2018-09-20T00:47:18.167Z,15.59
2018-09-20T00:48:18.147Z,15.59
2018-09-20T00:49:18.125Z,15.49
2018-09-20T00:50:18.102Z,15.44
2018-09-20T00:51:18.082Z,15.46
2018-09-20T00:52:18.058Z,15.49
2018-09-20T00:53:18.038Z,15.39
2018-09-20T00:54:18.033Z,15.38
2018-09-20T00:55:17.993Z,15.38
2018-09-20T00:56:17.972Z,15.41
2018-09-20T00:57:17.950Z,15.32
2018-09-20T00:58:17.929Z,15.34
2018-09-20T00:59:17.906Z,15.34
2018-09-20T01:00:17.885Z,15.34
2018-09-20T01:01:17.861Z,15.21
2018-09-20T01:02:17.845Z,15.19
2018-09-20T01:03:17.817Z,15.13
2018-09-20T01:04:17.795Z,15.14
2018-09-20T01:05:17.773Z,15.11
2018-09-20T01:06:17.751Z,15.10
2018-09-20T01:07:17.733Z,14.95
2018-09-20T01:08:17.706Z,15.01
2018-09-20T01:09:17.685Z,14.92
2018-09-20T01:10:17.663Z,14.95
2018-09-20T01:11:17.642Z,14.88
2018-09-20T01:12:17.619Z,14.83
2018-09-20T01:13:17.597Z,14.84
2018-09-20T01:14:17.574Z,14.91
2018-09-20T01:15:17.553Z,14.80
2018-09-20T01:16:17.531Z,14.83
2018-09-20T01:17:17.509Z,14.75
2018-09-20T01:18:17.486Z,14.80
2018-09-20T01:19:17.464Z,14.69
2018-09-20T01:20:17.445Z,14.80
2018-09-20T01:21:17.420Z,14.69
2018-09-20T01:22:17.399Z,14.65
2018-09-20T01:23:17.375Z,14.65
2018-09-20T01:24:17.353Z,14.57
2018-09-20T01:25:17.330Z,14.42
2018-09-20T01:26:17.308Z,14.45
2018-09-20T01:27:17.286Z,14.40
2018-09-20T01:28:17.264Z,14.32
2018-09-20T01:29:17.240Z,14.37
2018-09-20T01:30:17.220Z,14.37
2018-09-20T01:31:17.197Z,14.32
2018-09-20T01:32:17.175Z,14.22
2018-09-20T01:33:17.152Z,14.27
2018-09-20T01:34:17.129Z,14.22
2018-09-20T01:35:17.113Z,14.18
2018-09-20T01:36:17.085Z,14.15
2018-09-20T01:37:17.063Z,14.21
2018-09-20T01:38:17.043Z,14.09
2018-09-20T01:39:17.019Z,14.02
2018-09-20T01:40:16.994Z,14.14
2018-09-20T01:41:16.972Z,14.14
2018-09-20T01:42:16.950Z,14.10
2018-09-20T01:43:16.929Z,14.02
2018-09-20T01:44:16.904Z,14.04
2018-09-20T01:45:16.883Z,14.07
2018-09-20T01:46:16.861Z,14.02
2018-09-20T01:47:16.839Z,14.07
2018-09-20T01:48:16.815Z,14.04
2018-09-20T01:49:16.794Z,14.04
2018-09-20T01:50:16.771Z,13.99
2018-09-20T01:51:16.748Z,14.12
2018-09-20T01:52:16.877Z,14.20
2018-09-20T01:53:16.703Z,14.18
2018-09-20T01:54:16.681Z,14.32
2018-09-20T01:55:16.659Z,14.24
2018-09-20T01:56:16.636Z,14.36
2018-09-20T01:57:16.613Z,14.35
2018-09-20T01:58:16.593Z,14.43
2018-09-20T01:59:16.569Z,14.65
2018-09-20T02:00:16.545Z,14.69
2018-09-20T02:01:16.521Z,14.83
2018-09-20T02:02:16.501Z,14.88
2018-09-20T02:03:16.477Z,14.95
2018-09-20T02:04:16.455Z,14.91
2018-09-20T02:05:16.432Z,14.92
2018-09-20T02:06:16.410Z,14.94
2018-09-20T02:07:16.389Z,14.88
2018-09-20T02:08:16.365Z,14.86
2018-09-20T02:09:16.342Z,14.88
2018-09-20T02:10:16.322Z,14.91
2018-09-20T02:11:16.299Z,14.84
2018-09-20T02:12:16.273Z,14.84
2018-09-20T02:13:16.256Z,14.73
2018-09-20T02:14:16.231Z,14.94
2018-09-20T02:15:16.208Z,14.86
2018-09-20T02:16:16.185Z,14.99
2018-09-20T02:17:16.162Z,14.98
2018-09-20T02:18:16.140Z,14.96
2018-09-20T02:19:16.117Z,15.06
2018-09-20T02:20:16.094Z,15.07
2018-09-20T02:21:16.073Z,15.03
2018-09-20T02:22:16.050Z,15.09
2018-09-20T02:23:16.028Z,15.06
2018-09-20T02:24:16.005Z,14.98
2018-09-20T02:25:15.983Z,15.03
2018-09-20T02:26:15.961Z,15.02
2018-09-20T02:27:15.937Z,14.95
2018-09-20T02:28:15.914Z,14.95
2018-09-20T02:29:15.893Z,14.94
2018-09-20T02:30:15.871Z,14.86
2018-09-20T02:31:15.848Z,14.88
2018-09-20T02:32:15.825Z,14.77
2018-09-20T02:33:15.802Z,14.80
2018-09-20T02:34:15.780Z,14.77
2018-09-20T02:35:15.774Z,14.72
2018-09-20T02:36:15.734Z,14.70
2018-09-20T02:37:15.721Z,14.65
2018-09-20T02:38:15.689Z,14.69
2018-09-20T02:39:15.668Z,14.64
2018-09-20T02:40:15.643Z,14.54
2018-09-20T02:41:15.621Z,14.54
2018-09-20T02:42:15.601Z,14.62
2018-09-20T02:43:15.577Z,14.68
2018-09-20T02:44:15.554Z,14.84
2018-09-20T02:45:15.532Z,14.77
2018-09-20T02:46:15.508Z,14.78
2018-09-20T02:47:15.487Z,14.84
2018-09-20T02:48:15.463Z,15.10
2018-09-20T02:49:15.439Z,15.17
2018-09-20T02:50:15.418Z,15.34
2018-09-20T02:51:15.396Z,15.29
2018-09-20T02:52:15.372Z,15.36
2018-09-20T02:53:15.350Z,15.35
2018-09-20T02:54:15.328Z,15.34
2018-09-20T02:55:15.305Z,15.25
2018-09-20T02:56:15.282Z,15.19
2018-09-20T02:57:15.262Z,15.23
2018-09-20T02:58:15.236Z,15.19
2018-09-20T02:59:15.215Z,15.11
2018-09-20T03:00:15.191Z,15.11
2018-09-20T03:01:15.168Z,15.20
2018-09-20T03:02:15.147Z,15.19
2018-09-20T03:03:15.124Z,15.21
2018-09-20T03:04:15.099Z,15.13
2018-09-20T03:05:15.077Z,15.11
2018-09-20T03:06:15.057Z,15.09
2018-09-20T03:07:15.034Z,15.06
2018-09-20T03:08:15.010Z,14.91
2018-09-20T03:09:14.987Z,14.96
2018-09-20T03:10:14.964Z,14.91
2018-09-20T03:11:14.941Z,14.92
2018-09-20T03:12:14.918Z,14.96
2018-09-20T03:13:14.895Z,14.92
2018-09-20T03:14:14.875Z,14.84
2018-09-20T03:15:14.855Z,14.88
2018-09-20T03:16:14.829Z,14.88
2018-09-20T03:17:14.804Z,14.86
2018-09-20T03:18:14.782Z,14.95
2018-09-20T03:19:14.760Z,14.95
2018-09-20T03:20:14.738Z,15.01
2018-09-20T03:21:14.713Z,15.20
2018-09-20T03:22:14.691Z,15.17
2018-09-20T03:23:14.669Z,15.13
2018-09-20T03:24:14.656Z,15.20
2018-09-20T03:25:14.623Z,15.23
2018-09-20T03:26:14.599Z,15.28
2018-09-20T03:27:14.578Z,15.46
2018-09-20T03:28:14.554Z,15.53
2018-09-20T03:29:14.530Z,15.60
2018-09-20T03:30:14.525Z,15.59
2018-09-20T03:31:14.505Z,15.64
2018-09-20T03:32:14.464Z,15.59
2018-09-20T03:33:14.441Z,15.51
2018-09-20T03:34:14.418Z,15.44
2018-09-20T03:35:14.397Z,15.49
2018-09-20T03:36:14.371Z,15.46
2018-09-20T03:37:14.350Z,15.27
2018-09-20T03:38:14.327Z,15.29
2018-09-20T03:39:14.304Z,15.25
2018-09-20T03:40:14.281Z,15.11
2018-09-20T03:41:14.258Z,15.13
2018-09-20T03:42:14.235Z,15.11
2018-09-20T03:43:14.218Z,15.10
2018-09-20T03:44:14.189Z,15.13
2018-09-20T03:45:14.168Z,15.03
2018-09-20T03:46:14.145Z,14.91
2018-09-20T03:47:14.124Z,14.92
2018-09-20T03:48:14.099Z,14.92
2018-09-20T03:49:14.077Z,14.83
2018-09-20T03:50:14.054Z,14.78
2018-09-20T03:51:14.032Z,14.69
2018-09-20T03:52:14.007Z,14.73
2018-09-20T03:53:13.986Z,14.62
2018-09-20T03:54:13.974Z,14.69
2018-09-20T03:55:13.940Z,14.69
2018-09-20T03:56:13.917Z,14.65
2018-09-20T03:57:13.893Z,14.68
2018-09-20T03:58:13.871Z,14.73
2018-09-20T03:59:13.862Z,14.70
2018-09-20T04:00:13.826Z,14.70
2018-09-20T04:01:13.806Z,14.70
2018-09-20T04:02:13.779Z,14.64
2018-09-20T04:03:13.757Z,14.68
2018-09-20T04:04:13.732Z,14.62
2018-09-20T04:05:13.712Z,14.65
2018-09-20T04:06:13.688Z,14.55
2018-09-20T04:07:13.669Z,14.54
2018-09-20T04:08:13.645Z,14.58
2018-09-20T04:09:13.620Z,14.54
2018-09-20T04:10:13.598Z,14.40
2018-09-20T04:11:13.575Z,14.42
2018-09-20T04:12:13.551Z,14.39
2018-09-20T04:13:13.529Z,14.33
2018-09-20T04:14:13.505Z,14.27
2018-09-20T04:15:13.487Z,14.27
2018-09-20T04:16:13.459Z,14.24
2018-09-20T04:17:13.436Z,14.27
2018-09-20T04:18:13.414Z,14.35
2018-09-20T04:19:13.392Z,14.43
2018-09-20T04:20:13.367Z,14.45
2018-09-20T04:21:13.346Z,14.40
2018-09-20T04:22:13.322Z,14.43
2018-09-20T04:23:13.299Z,14.35
2018-09-20T04:24:13.276Z,14.42
2018-09-20T04:25:13.253Z,14.42
2018-09-20T04:26:13.231Z,14.46
2018-09-20T04:27:13.209Z,14.39
2018-09-20T04:28:13.183Z,14.54
2018-09-20T04:29:13.164Z,14.51
2018-09-20T04:30:13.138Z,14.42
2018-09-20T04:31:13.115Z,14.50
2018-09-20T04:32:13.091Z,14.50
2018-09-20T04:33:13.068Z,14.61
2018-09-20T04:34:13.049Z,14.61
2018-09-20T04:35:13.022Z,14.60
2018-09-20T04:36:13.001Z,14.54
2018-09-20T04:37:12.976Z,14.54
2018-09-20T04:38:12.955Z,14.55
2018-09-20T04:39:12.932Z,14.54
2018-09-20T04:40:12.910Z,14.54
2018-09-20T04:41:12.888Z,14.55
2018-09-20T04:42:12.861Z,14.58
2018-09-20T04:43:12.840Z,14.50
2018-09-20T04:44:12.819Z,14.57
2018-09-20T04:45:12.794Z,14.62
2018-09-20T04:46:12.770Z,14.65
2018-09-20T04:47:12.749Z,14.68
2018-09-20T04:48:12.724Z,14.64
2018-09-20T04:49:12.778Z,14.75
2018-09-20T04:50:12.680Z,14.77
2018-09-20T04:51:12.654Z,14.84
2018-09-20T04:52:12.630Z,14.86
2018-09-20T04:53:12.625Z,14.91
2018-09-20T04:54:12.586Z,14.99
2018-09-20T04:55:12.562Z,15.02
2018-09-20T04:56:12.538Z,15.03
2018-09-20T04:57:12.516Z,15.14
2018-09-20T04:58:12.493Z,15.11
2018-09-20T04:59:12.470Z,15.11
2018-09-20T05:00:12.446Z,15.13
2018-09-20T05:01:12.423Z,15.10
2018-09-20T05:02:12.400Z,15.11
2018-09-20T05:03:12.378Z,15.13
2018-09-20T05:04:12.355Z,15.14
2018-09-20T05:05:12.332Z,15.11
2018-09-20T05:06:12.309Z,15.19
2018-09-20T05:07:12.286Z,15.11
2018-09-20T05:08:12.262Z,15.09
2018-09-20T05:09:12.245Z,15.17
2018-09-20T05:10:12.216Z,15.28
2018-09-20T05:11:12.192Z,15.31
2018-09-20T05:12:12.169Z,15.32
2018-09-20T05:13:12.146Z,15.32
2018-09-20T05:14:12.124Z,15.35
2018-09-20T05:15:12.101Z,15.39
2018-09-20T05:16:12.077Z,15.43
2018-09-20T05:17:12.054Z,15.47
2018-09-20T05:18:12.031Z,15.43
2018-09-20T05:19:12.009Z,15.57
2018-09-20T05:20:12.039Z,15.54
2018-09-20T05:21:11.962Z,15.49
2018-09-20T05:22:11.940Z,15.47
2018-09-20T05:23:11.916Z,15.47
2018-09-20T05:24:11.892Z,15.49
2018-09-20T05:25:11.872Z,15.50
2018-09-20T05:26:11.848Z,15.49
2018-09-20T05:27:11.824Z,15.43
2018-09-20T05:28:11.860Z,15.38
2018-09-20T05:29:11.777Z,15.44
2018-09-20T05:30:11.757Z,15.43
2018-09-20T05:31:11.732Z,15.34
2018-09-20T05:32:11.710Z,15.32
2018-09-20T05:33:11.728Z,15.32
2018-09-20T05:34:11.663Z,15.35
2018-09-20T05:35:11.642Z,15.44
2018-09-20T05:36:11.618Z,15.49
2018-09-20T05:37:11.596Z,15.43
2018-09-20T05:38:11.572Z,15.59
2018-09-20T05:39:11.552Z,15.67
2018-09-20T05:40:11.525Z,15.65
2018-09-20T05:41:11.504Z,15.72
2018-09-20T05:42:11.486Z,15.74
2018-09-20T05:43:11.458Z,15.68
2018-09-20T05:44:11.435Z,15.78
2018-09-20T05:45:11.411Z,15.83
2018-09-20T05:46:11.389Z,15.86
2018-09-20T05:47:11.368Z,16.00
2018-09-20T05:48:11.343Z,15.94
2018-09-20T05:49:11.320Z,15.92
2018-09-20T05:50:11.301Z,15.92
2018-09-20T05:51:11.276Z,15.89
2018-09-20T05:52:11.252Z,15.96
2018-09-20T05:53:11.230Z,16.05
2018-09-20T05:54:11.209Z,16.07
2018-09-20T05:55:11.185Z,16.20
2018-09-20T05:56:11.162Z,16.35
2018-09-20T05:57:11.141Z,16.43
2018-09-20T05:58:11.118Z,16.43
2018-09-20T05:59:11.131Z,16.53
2018-09-20T06:00:11.074Z,16.58
2018-09-20T06:01:11.052Z,16.64
2018-09-20T06:02:11.028Z,16.68
2018-09-20T06:03:11.008Z,16.86
2018-09-20T06:04:10.984Z,17.33
2018-09-20T06:05:10.967Z,18.05
2018-09-20T06:06:10.942Z,18.98
2018-09-20T06:07:10.922Z,19.76
2018-09-20T06:08:10.897Z,20.33
2018-09-20T06:09:10.876Z,20.97
2018-09-20T06:10:10.853Z,21.54
2018-09-20T06:11:10.833Z,22.22
2018-09-20T06:12:10.810Z,22.33
2018-09-20T06:13:10.810Z,22.79
2018-09-20T06:14:10.769Z,22.95
2018-09-20T06:15:10.749Z,22.97
2018-09-20T06:16:10.728Z,22.57
2018-09-20T06:17:10.709Z,21.68
2018-09-20T06:18:10.689Z,21.31
2018-09-20T06:19:10.673Z,21.74
2018-09-20T06:20:10.652Z,22.46
2018-09-20T06:21:10.630Z,22.70
2018-09-20T06:22:10.615Z,23.02
2018-09-20T06:23:10.593Z,23.23
2018-09-20T06:24:10.572Z,23.72
2018-09-20T06:25:10.563Z,23.76
2018-09-20T06:26:10.537Z,23.91
2018-09-20T06:27:10.519Z,23.60
2018-09-20T06:28:10.499Z,23.39
2018-09-20T06:29:10.482Z,23.79
2018-09-20T06:30:10.464Z,23.85
2018-09-20T06:31:10.447Z,24.09
2018-09-20T06:32:10.427Z,24.62
2018-09-20T06:33:10.410Z,24.18
2018-09-20T06:34:10.392Z,24.42
2018-09-20T06:35:10.377Z,24.50
2018-09-20T06:36:10.359Z,24.46
2018-09-20T06:37:10.342Z,24.05
2018-09-20T06:38:10.325Z,23.58
2018-09-20T06:39:10.309Z,23.12
2018-09-20T06:40:10.290Z,23.33
2018-09-20T06:41:10.333Z,23.57
2018-09-20T06:42:10.259Z,23.54
2018-09-20T06:43:10.241Z,23.75
2018-09-20T06:44:10.224Z,24.45
2018-09-20T06:45:10.208Z,24.55
2018-09-20T06:46:10.194Z,25.06
2018-09-20T06:47:10.173Z,25.35
2018-09-20T06:48:10.156Z,25.25
2018-09-20T06:49:10.140Z,25.32
2018-09-20T06:50:10.130Z,25.62
2018-09-20T06:51:10.109Z,25.67
2018-09-20T06:52:10.092Z,25.72
2018-09-20T06:53:10.077Z,25.08
2018-09-20T06:54:10.061Z,25.18
2018-09-20T06:55:10.044Z,25.33
2018-09-20T06:56:10.028Z,25.27
2018-09-20T06:57:10.013Z,24.85
2018-09-20T06:58:09.996Z,24.91
2018-09-20T06:59:09.982Z,24.87
2018-09-20T07:00:09.964Z,24.77
2018-09-20T07:01:09.951Z,24.64
2018-09-20T07:02:09.933Z,24.24
2018-09-20T07:03:09.951Z,24.53
2018-09-20T07:04:09.903Z,25.17
2018-09-20T07:05:09.889Z,25.18
2018-09-20T07:06:09.872Z,24.57
2018-09-20T07:07:09.857Z,24.77
2018-09-20T07:08:09.842Z,25.08
2018-09-20T07:09:09.824Z,24.81
2018-09-20T07:10:09.809Z,24.90
2018-09-20T07:11:09.795Z,24.55
2018-09-20T07:12:09.778Z,24.57
2018-09-20T07:13:09.762Z,24.93
2018-09-20T07:14:09.748Z,25.18
2018-09-20T07:15:09.731Z,25.47
2018-09-20T07:16:09.715Z,25.25
2018-09-20T07:17:09.701Z,25.55
2018-09-20T07:18:09.687Z,25.82
2018-09-20T07:19:09.679Z,26.02
2018-09-20T07:20:09.654Z,26.02
2018-09-20T07:21:09.639Z,25.60
2018-09-20T07:22:09.623Z,25.28
2018-09-20T07:23:09.608Z,25.17
2018-09-20T07:24:09.592Z,25.61
2018-09-20T07:25:09.630Z,24.65
2018-09-20T07:26:09.563Z,24.15
2018-09-20T07:27:09.547Z,24.24
2018-09-20T07:28:09.532Z,25.03
2018-09-20T07:29:09.516Z,25.52
2018-09-20T07:30:09.505Z,25.60
2018-09-20T07:31:09.485Z,25.55
2018-09-20T07:32:09.468Z,25.88
2018-09-20T07:33:09.455Z,25.77
2018-09-20T07:34:09.438Z,25.98
2018-09-20T07:35:09.425Z,26.30
2018-09-20T07:36:09.507Z,26.37
2018-09-20T07:37:09.392Z,26.82
2018-09-20T07:38:09.379Z,26.69
2018-09-20T07:39:09.363Z,26.23
2018-09-20T07:40:09.348Z,26.47
2018-09-20T07:41:09.332Z,26.43
2018-09-20T07:42:09.318Z,26.73
2018-09-20T07:43:09.304Z,26.94
2018-09-20T07:44:09.288Z,27.97
2018-09-20T07:45:09.274Z,28.04
2018-09-20T07:46:09.258Z,28.48
2018-09-20T07:47:09.245Z,28.14
2018-09-20T07:48:09.229Z,28.81
2018-09-20T07:49:09.215Z,28.36
2018-09-20T07:50:09.202Z,27.85
2018-09-20T07:51:09.189Z,27.93
2018-09-20T07:52:09.174Z,28.04
2018-09-20T07:53:09.159Z,28.00
2018-09-20T07:54:09.143Z,28.44
2018-09-20T07:55:09.131Z,28.58
2018-09-20T07:56:09.117Z,28.36
2018-09-20T07:57:09.103Z,28.62
2018-09-20T07:58:09.088Z,29.02
2018-09-20T07:59:09.075Z,28.85
2018-09-20T08:00:09.061Z,28.89
2018-09-20T08:01:09.048Z,29.04
2018-09-20T08:02:09.034Z,29.63
2018-09-20T08:03:09.021Z,29.68
2018-09-20T08:04:09.007Z,29.74
2018-09-20T08:05:08.992Z,29.67
2018-09-20T08:06:08.981Z,29.92
2018-09-20T08:07:09.009Z,29.45
2018-09-20T08:08:08.953Z,28.95
2018-09-20T08:09:08.940Z,28.93
2018-09-20T08:10:08.926Z,28.98
2018-09-20T08:11:08.912Z,28.71
2018-09-20T08:12:08.900Z,28.89
2018-09-20T08:13:08.885Z,28.58
2018-09-20T08:14:08.874Z,28.21
2018-09-20T08:15:08.859Z,28.58
2018-09-20T08:16:08.847Z,28.43
2018-09-20T08:17:08.843Z,28.55
2018-09-20T08:18:08.825Z,28.27
2018-09-20T08:19:08.807Z,28.96
2018-09-20T08:20:08.794Z,28.89
2018-09-20T08:21:08.780Z,29.21
2018-09-20T08:22:08.768Z,29.04
2018-09-20T08:23:08.755Z,29.12
2018-09-20T08:24:08.747Z,29.49
2018-09-20T08:25:08.727Z,29.12
2018-09-20T08:26:08.714Z,28.48
2018-09-20T08:27:08.703Z,28.15
2018-09-20T08:28:08.689Z,28.55
2018-09-20T08:29:08.675Z,29.06
2018-09-20T08:30:08.664Z,28.81
2018-09-20T08:31:08.650Z,28.46
2018-09-20T08:32:08.637Z,28.68
2018-09-20T08:33:08.625Z,28.39
2018-09-20T08:34:08.611Z,28.48
2018-09-20T08:35:08.597Z,28.24
2018-09-20T08:36:08.582Z,28.03
2018-09-20T08:37:08.630Z,28.00
2018-09-20T08:38:08.557Z,28.55
2018-09-20T08:39:08.547Z,28.89
2018-09-20T08:40:08.530Z,29.30
2018-09-20T08:41:08.517Z,29.06
2018-09-20T08:42:08.560Z,29.33
2018-09-20T08:43:08.490Z,29.27
2018-09-20T08:44:08.478Z,29.31
2018-09-20T08:45:08.468Z,28.98
2018-09-20T08:46:08.452Z,29.04
2018-09-20T08:47:08.438Z,28.98
2018-09-20T08:48:08.427Z,29.48
2018-09-20T08:49:08.411Z,29.68
2018-09-20T08:50:08.399Z,29.52
2018-09-20T08:51:08.482Z,29.49
2018-09-20T08:52:08.373Z,30.00
2018-09-20T08:53:08.359Z,30.11
2018-09-20T08:54:08.349Z,29.78
2018-09-20T08:55:08.335Z,29.45
2018-09-20T08:56:08.320Z,29.53
2018-09-20T08:57:08.370Z,29.63
2018-09-20T08:58:08.295Z,29.55
2018-09-20T08:59:08.282Z,30.04
2018-09-20T09:00:08.269Z,30.10
2018-09-20T09:01:08.256Z,30.47
2018-09-20T09:02:08.244Z,30.80
2018-09-20T09:03:08.232Z,30.43
2018-09-20T09:04:08.219Z,29.60
2018-09-20T09:05:08.207Z,29.21
2018-09-20T09:06:08.193Z,29.12
2018-09-20T09:07:08.184Z,29.28
2018-09-20T09:08:08.167Z,29.37
2018-09-20T09:09:08.157Z,29.27
2018-09-20T09:10:08.144Z,29.60
2018-09-20T09:11:08.131Z,29.46
2018-09-20T09:12:08.117Z,28.95
2018-09-20T09:13:08.105Z,29.08
2018-09-20T09:14:08.092Z,29.36
2018-09-20T09:15:08.081Z,29.67
2018-09-20T09:16:08.065Z,29.86
2018-09-20T09:17:08.053Z,29.80
2018-09-20T09:18:08.040Z,29.82
2018-09-20T09:19:08.029Z,29.61
2018-09-20T09:20:08.014Z,29.58
2018-09-20T09:21:08.003Z,29.49
2018-09-20T09:22:07.990Z,30.34
2018-09-20T09:23:07.977Z,30.45
2018-09-20T09:24:07.964Z,30.26
2018-09-20T09:25:07.951Z,30.47
2018-09-20T09:26:07.940Z,29.83
2018-09-20T09:27:07.926Z,29.85
2018-09-20T09:28:07.912Z,30.04
2018-09-20T09:29:07.906Z,30.54
2018-09-20T09:30:07.888Z,30.98
2018-09-20T09:31:07.883Z,31.75
2018-09-20T09:32:07.862Z,32.03
2018-09-20T09:33:07.850Z,32.41
2018-09-20T09:34:07.897Z,32.81
2018-09-20T09:35:07.828Z,33.06
2018-09-20T09:36:07.814Z,32.14
2018-09-20T09:37:07.802Z,31.10
2018-09-20T09:38:07.790Z,30.10
2018-09-20T09:39:07.782Z,29.43
2018-09-20T09:40:07.765Z,29.06
2018-09-20T09:41:07.753Z,29.58
2018-09-20T09:42:07.786Z,28.90
2018-09-20T09:43:07.730Z,28.90
2018-09-20T09:44:07.717Z,28.85
2018-09-20T09:45:07.709Z,28.17
2018-09-20T09:46:07.692Z,28.68
2018-09-20T09:47:07.680Z,28.89
2018-09-20T09:48:07.736Z,28.74
2018-09-20T09:49:07.652Z,28.34
2018-09-20T09:50:07.640Z,27.97
2018-09-20T09:51:07.628Z,27.78
2018-09-20T09:52:07.615Z,27.78
2018-09-20T09:53:07.600Z,27.82
2018-09-20T09:54:07.588Z,27.66
2018-09-20T09:55:07.576Z,27.59
2018-09-20T09:56:07.562Z,27.02
2018-09-20T09:57:07.546Z,27.85
2018-09-20T09:58:07.533Z,28.96
2018-09-20T09:59:07.522Z,29.04
2018-09-20T10:00:07.506Z,28.37
2018-09-20T10:01:07.493Z,27.87
2018-09-20T10:02:07.479Z,27.55
2018-09-20T10:03:07.466Z,27.49
2018-09-20T10:04:07.456Z,28.70
2018-09-20T10:05:07.444Z,28.78
2018-09-20T10:06:07.424Z,28.46
2018-09-20T10:07:07.446Z,27.93
2018-09-20T10:08:07.398Z,28.09
2018-09-20T10:09:07.385Z,28.04
2018-09-20T10:10:07.369Z,29.52
2018-09-20T10:11:07.355Z,28.90
2018-09-20T10:12:07.341Z,28.67
2018-09-20T10:13:07.326Z,29.67
2018-09-20T10:14:07.314Z,30.10
2018-09-20T10:15:07.304Z,29.30
2018-09-20T10:16:07.285Z,29.02
2018-09-20T10:17:07.272Z,28.56
2018-09-20T10:18:07.259Z,28.40
2018-09-20T10:19:07.247Z,28.22
2018-09-20T10:20:07.255Z,28.03
2018-09-20T10:21:07.216Z,27.19
2018-09-20T10:22:07.204Z,28.14
2018-09-20T10:23:07.188Z,28.76
2018-09-20T10:24:07.175Z,29.49
2018-09-20T10:25:07.161Z,30.35
2018-09-20T10:26:07.147Z,30.88
2018-09-20T10:27:07.133Z,31.25
2018-09-20T10:28:07.177Z,31.34
2018-09-20T10:29:07.107Z,31.80
2018-09-20T10:30:07.093Z,31.47
2018-09-20T10:31:07.081Z,30.47
2018-09-20T10:32:07.067Z,30.53
2018-09-20T10:33:07.053Z,30.13
2018-09-20T10:34:07.090Z,29.26
2018-09-20T10:35:07.028Z,30.20
2018-09-20T10:36:07.015Z,30.46
2018-09-20T10:37:07.001Z,29.92
2018-09-20T10:38:06.988Z,30.23
2018-09-20T10:39:06.975Z,31.36
2018-09-20T10:40:06.963Z,29.87
2018-09-20T10:41:06.948Z,29.68
2018-09-20T10:42:06.937Z,30.32
2018-09-20T10:43:06.924Z,29.89
2018-09-20T10:44:06.910Z,29.70
2018-09-20T10:45:06.906Z,29.12
2018-09-20T10:46:06.884Z,29.49
2018-09-20T10:47:06.874Z,29.90
2018-09-20T10:48:06.858Z,29.79
2018-09-20T10:49:06.844Z,29.06
2018-09-20T10:50:06.831Z,28.77
2018-09-20T10:51:06.819Z,28.22
2018-09-20T10:52:06.805Z,27.90
2018-09-20T10:53:06.793Z,27.60
2018-09-20T10:54:06.778Z,27.37
2018-09-20T10:55:06.764Z,27.31
2018-09-20T10:56:06.750Z,28.70
2018-09-20T10:57:06.736Z,29.60
2018-09-20T10:58:06.723Z,30.15
2018-09-20T10:59:06.710Z,30.60
2018-09-20T11:00:06.694Z,30.99
2018-09-20T11:01:06.685Z,30.76
2018-09-20T11:02:06.668Z,31.01
2018-09-20T11:03:06.798Z,31.46
2018-09-20T11:04:06.642Z,31.66
2018-09-20T11:05:06.627Z,31.84
2018-09-20T11:06:06.614Z,31.84
2018-09-20T11:07:06.601Z,30.67
2018-09-20T11:08:06.592Z,29.27
2018-09-20T11:09:06.574Z,29.19
2018-09-20T11:10:06.561Z,28.41
2018-09-20T11:11:06.592Z,27.78
2018-09-20T11:12:06.535Z,27.28
2018-09-20T11:13:06.527Z,27.78
2018-09-20T11:14:06.536Z,28.56
2018-09-20T11:15:06.494Z,29.53
2018-09-20T11:16:06.479Z,29.61
2018-09-20T11:17:06.466Z,28.78
2018-09-20T11:18:06.450Z,28.51
2018-09-20T11:19:06.437Z,29.24
2018-09-20T11:20:06.423Z,28.67
2018-09-20T11:21:06.409Z,29.09
2018-09-20T11:22:06.395Z,28.59
2018-09-20T11:23:06.382Z,28.06
2018-09-20T11:24:06.368Z,28.12
2018-09-20T11:25:06.352Z,29.36
2018-09-20T11:26:06.339Z,30.11
2018-09-20T11:27:06.326Z,30.83
2018-09-20T11:28:06.311Z,30.01
2018-09-20T11:29:06.296Z,29.74
2018-09-20T11:30:06.284Z,30.00
2018-09-20T11:31:06.269Z,29.18
2018-09-20T11:32:06.259Z,28.61
2018-09-20T11:33:06.241Z,28.66
2018-09-20T11:34:06.227Z,28.34
2018-09-20T11:35:06.214Z,28.48
2018-09-20T11:36:06.275Z,27.32
2018-09-20T11:37:06.184Z,28.19
2018-09-20T11:38:06.171Z,27.78
2018-09-20T11:39:06.156Z,27.81
2018-09-20T11:40:06.143Z,27.36
2018-09-20T11:41:06.127Z,28.33
2018-09-20T11:42:06.112Z,28.66
2018-09-20T11:43:06.097Z,28.17
2018-09-20T11:44:06.082Z,27.82
2018-09-20T11:45:06.070Z,27.31
2018-09-20T11:46:06.058Z,27.02
2018-09-20T11:47:06.039Z,27.51
2018-09-20T11:48:06.022Z,27.59
2018-09-20T11:49:06.007Z,28.03
2018-09-20T11:50:05.993Z,28.88
2018-09-20T11:51:05.979Z,29.43
2018-09-20T11:52:05.962Z,30.02
2018-09-20T11:53:05.949Z,30.37
2018-09-20T11:54:05.932Z,30.99
2018-09-20T11:55:05.918Z,30.22
2018-09-20T11:56:05.903Z,29.34
2018-09-20T11:57:05.888Z,28.66
2018-09-20T11:58:05.874Z,29.08
2018-09-20T11:59:05.860Z,29.90
2018-09-20T12:00:05.845Z,30.11
2018-09-20T12:01:05.831Z,30.47
2018-09-20T12:02:05.834Z,30.95
2018-09-20T12:03:05.801Z,31.06
2018-09-20T12:04:05.787Z,31.17
2018-09-20T12:05:05.774Z,31.13
2018-09-20T12:06:05.758Z,31.85
2018-09-20T12:07:05.744Z,32.11
2018-09-20T12:08:05.732Z,31.65
2018-09-20T12:09:05.715Z,31.20
2018-09-20T12:10:05.702Z,30.38
2018-09-20T12:11:05.690Z,30.42
2018-09-20T12:12:05.672Z,29.63
2018-09-20T12:13:05.660Z,29.94
2018-09-20T12:14:05.647Z,30.69
2018-09-20T12:15:05.632Z,30.72
2018-09-20T12:16:05.618Z,30.61
2018-09-20T12:17:05.605Z,30.92
2018-09-20T12:18:05.590Z,31.43
2018-09-20T12:19:05.576Z,31.62
2018-09-20T12:20:05.590Z,31.76
2018-09-20T12:21:05.548Z,32.14
2018-09-20T12:22:05.534Z,32.10
2018-09-20T12:23:05.522Z,32.33
2018-09-20T12:24:05.506Z,32.14
2018-09-20T12:25:05.494Z,31.76
2018-09-20T12:26:05.480Z,30.99
2018-09-20T12:27:05.465Z,30.22
2018-09-20T12:28:05.453Z,30.98
2018-09-20T12:29:05.442Z,31.53
2018-09-20T12:30:05.426Z,31.91
2018-09-20T12:31:05.419Z,31.47
2018-09-20T12:32:05.451Z,32.06
2018-09-20T12:33:05.386Z,32.23
2018-09-20T12:34:05.373Z,31.86
2018-09-20T12:35:05.360Z,31.34
2018-09-20T12:36:05.486Z,31.57
2018-09-20T12:37:05.332Z,31.34
2018-09-20T12:38:05.347Z,31.47
2018-09-20T12:39:05.308Z,31.62
2018-09-20T12:40:05.291Z,31.02
2018-09-20T12:41:05.279Z,30.64
2018-09-20T12:42:05.265Z,29.51
2018-09-20T12:43:05.289Z,28.86
2018-09-20T12:44:05.240Z,29.18
2018-09-20T12:45:05.225Z,29.61
2018-09-20T12:46:05.210Z,29.68
2018-09-20T12:47:05.197Z,29.89
2018-09-20T12:48:05.206Z,30.11
2018-09-20T12:49:05.169Z,30.23
2018-09-20T12:50:05.155Z,30.31
2018-09-20T12:51:05.141Z,30.39
2018-09-20T12:52:05.127Z,30.42